createdAt,value
2022-07-29T00:02:10.800Z,96029.53
2022-07-29T00:04:38.860Z,96033.31
2022-07-29T00:07:05.344Z,96025.53
2022-07-29T00:09:32.397Z,96028.25
2022-07-29T00:12:01.243Z,96034.31
2022-07-29T00:14:29.166Z,96036.97
2022-07-29T00:16:56.455Z,96030.75
2022-07-29T00:19:23.340Z,96032.06
2022-07-29T00:21:49.867Z,96026.19
2022-07-29T00:24:16.555Z,96016.53
2022-07-29T00:26:43.479Z,96010.44
2022-07-29T00:31:56.984Z,96003.38
2022-07-29T00:34:41.781Z,95987.59
2022-07-29T00:37:08.446Z,95985.09
2022-07-29T00:39:34.836Z,95974.75
2022-07-29T00:42:04.462Z,95970.63
2022-07-29T00:44:31.145Z,95968.75
2022-07-29T00:46:57.602Z,95971.75
2022-07-29T00:49:24.581Z,95973.84
2022-07-29T00:51:51.310Z,95970.31
2022-07-29T00:54:18.635Z,95967.88
2022-07-29T00:56:45.731Z,95968.88
2022-07-29T00:59:12.100Z,95962.50
2022-07-29T01:01:38.533Z,95952.25
2022-07-29T01:04:07.605Z,95951.22
2022-07-29T01:06:35.608Z,95954.28
2022-07-29T01:09:02.402Z,95957.31
2022-07-29T01:11:29.291Z,95963.91
2022-07-29T01:13:56.451Z,95963.81
2022-07-29T01:16:31.739Z,95971.16
2022-07-29T01:19:07.850Z,95954.84
2022-07-29T01:21:39.899Z,95963.75
2022-07-29T01:24:35.383Z,95953.81
2022-07-29T01:27:19.109Z,95953.53
2022-07-29T01:29:54.980Z,95942.44
2022-07-29T01:32:29.013Z,95939.00
2022-07-29T01:35:04.939Z,95934.75
2022-07-29T01:37:43.956Z,95935.03
2022-07-29T01:40:21.125Z,95938.19
2022-07-29T01:42:52.480Z,95934.75
2022-07-29T01:45:36.169Z,95934.88
2022-07-29T01:48:17.824Z,95930.63
2022-07-29T01:50:57.262Z,95931.69
2022-07-29T01:53:38.088Z,95924.28
2022-07-29T01:56:07.334Z,95930.59
2022-07-29T01:58:35.907Z,95923.22
2022-07-29T02:01:04.184Z,95926.97
2022-07-29T02:03:33.369Z,95926.47
2022-07-29T02:06:02.972Z,95918.44
2022-07-29T02:08:31.063Z,95921.69
2022-07-29T02:10:59.399Z,95923.06
2022-07-29T02:13:29.008Z,95915.19
2022-07-29T02:15:58.112Z,95918.94
2022-07-29T02:18:26.205Z,95919.34
2022-07-29T02:20:57.732Z,95926.69
2022-07-29T02:23:25.830Z,95935.00
2022-07-29T02:25:56.172Z,95930.41
2022-07-29T02:28:25.216Z,95931.59
2022-07-29T02:30:53.192Z,95926.53
2022-07-29T02:33:21.383Z,95926.81
2022-07-29T02:35:49.469Z,95920.91
2022-07-29T02:38:36.402Z,95934.41
2022-07-29T02:41:13.187Z,95925.00
2022-07-29T02:43:41.426Z,95925.22
2022-07-29T02:46:28.282Z,95914.78
2022-07-29T02:49:23.439Z,95916.13
2022-07-29T02:52:03.036Z,95917.41
2022-07-29T02:54:39.165Z,95916.00
2022-07-29T02:57:16.153Z,95911.44
2022-07-29T02:59:46.083Z,95914.66
2022-07-29T03:02:15.880Z,95911.66
2022-07-29T03:04:44.827Z,95915.69
2022-07-29T03:07:16.377Z,95913.69
2022-07-29T03:09:43.877Z,95918.69
2022-07-29T03:12:11.937Z,95914.91
2022-07-29T03:14:39.267Z,95918.66
2022-07-29T03:17:06.738Z,95915.66
2022-07-29T03:19:33.352Z,95913.97
2022-07-29T03:22:00.987Z,95911.19
2022-07-29T03:24:29.470Z,95911.97
2022-07-29T03:26:57.604Z,95922.41
2022-07-29T03:29:24.638Z,95920.19
2022-07-29T03:31:51.161Z,95929.28
2022-07-29T03:34:18.141Z,95923.34
2022-07-29T03:36:45.227Z,95920.66
2022-07-29T03:39:15.528Z,95937.50
2022-07-29T03:41:45.764Z,95922.72
2022-07-29T03:44:14.777Z,95922.13
2022-07-29T03:46:44.642Z,95920.81
2022-07-29T03:49:13.705Z,95930.16
2022-07-29T03:51:40.351Z,95923.22
2022-07-29T03:54:10.111Z,95923.16
2022-07-29T03:56:40.701Z,95924.19
2022-07-29T03:59:08.113Z,95924.94
2022-07-29T04:01:35.600Z,95930.34
2022-07-29T04:04:02.511Z,95923.31
2022-07-29T04:06:29.363Z,95929.97
2022-07-29T04:08:55.751Z,95925.84
2022-07-29T04:11:22.176Z,95932.28
2022-07-29T04:13:49.128Z,95933.41
2022-07-29T04:16:15.541Z,95932.25
2022-07-29T04:18:41.960Z,95942.97
2022-07-29T04:21:08.375Z,95941.13
2022-07-29T04:23:34.785Z,95940.28
2022-07-29T04:26:02.012Z,95941.25
2022-07-29T04:28:28.800Z,95951.03
2022-07-29T04:30:55.596Z,95959.50
2022-07-29T04:33:22.022Z,95955.41
2022-07-29T04:35:52.678Z,95968.25
2022-07-29T04:38:22.653Z,95972.84
2022-07-29T04:40:49.604Z,95968.25
2022-07-29T04:43:17.695Z,95967.06
2022-07-29T04:45:49.999Z,95964.31
2022-07-29T04:48:16.416Z,95968.41
2022-07-29T04:50:42.999Z,95975.78
2022-07-29T04:53:10.029Z,95974.44
2022-07-29T04:55:37.357Z,95975.19
2022-07-29T04:58:05.569Z,95983.03
2022-07-29T05:00:33.483Z,95981.63
2022-07-29T05:03:00.290Z,95982.41
2022-07-29T05:05:26.778Z,95977.59
2022-07-29T05:07:53.647Z,95985.34
2022-07-29T05:10:20.027Z,95976.91
2022-07-29T05:12:46.416Z,95988.88
2022-07-29T05:15:13.262Z,95984.03
2022-07-29T05:17:40.059Z,95994.25
2022-07-29T05:20:07.966Z,95988.94
2022-07-29T05:22:34.322Z,95981.69
2022-07-29T05:25:05.536Z,95980.91
2022-07-29T05:27:34.957Z,95987.91
2022-07-29T05:30:01.379Z,96000.31
2022-07-29T05:32:28.262Z,95993.81
2022-07-29T05:34:54.621Z,96000.81
2022-07-29T05:37:21.029Z,96002.69
2022-07-29T05:39:49.042Z,96002.19
2022-07-29T05:42:17.664Z,96007.81
2022-07-29T05:44:44.066Z,96003.53
2022-07-29T05:47:10.472Z,96009.97
2022-07-29T05:49:37.301Z,96002.69
2022-07-29T05:52:04.599Z,96009.91
2022-07-29T05:54:31.547Z,96002.63
2022-07-29T05:56:58.284Z,96013.97
2022-07-29T05:59:29.884Z,96005.63
2022-07-29T06:01:57.943Z,96005.59
2022-07-29T06:04:25.020Z,96007.00
2022-07-29T06:06:51.809Z,96019.41
2022-07-29T06:09:18.272Z,96017.53
2022-07-29T06:11:44.652Z,96018.34
2022-07-29T06:14:11.492Z,96019.69
2022-07-29T06:16:38.331Z,96028.25
2022-07-29T06:19:05.312Z,96023.41
2022-07-29T06:21:31.710Z,96019.13
2022-07-29T06:23:58.589Z,96028.28
2022-07-29T06:26:30.410Z,96025.06
2022-07-29T06:28:58.027Z,96026.66
2022-07-29T06:31:24.915Z,96027.44
2022-07-29T06:33:51.453Z,96030.13
2022-07-29T06:36:23.533Z,96035.31
2022-07-29T06:38:52.221Z,96032.88
2022-07-29T06:41:19.159Z,96035.94
2022-07-29T06:43:52.104Z,96034.19
2022-07-29T06:46:22.876Z,96038.97
2022-07-29T06:48:50.846Z,96042.28
2022-07-29T06:51:22.946Z,96045.59
2022-07-29T06:53:59.794Z,96048.34
2022-07-29T06:56:30.914Z,96044.53
2022-07-29T06:58:57.623Z,96045.84
2022-07-29T07:01:24.071Z,96047.97
2022-07-29T07:03:50.580Z,96044.38
2022-07-29T07:06:17.615Z,96044.00
2022-07-29T07:08:44.005Z,96045.28
2022-07-29T07:11:10.784Z,96043.44
2022-07-29T07:13:37.232Z,96057.16
2022-07-29T07:16:05.066Z,96053.81
2022-07-29T07:18:31.977Z,96050.75
2022-07-29T07:20:59.556Z,96044.03
2022-07-29T07:23:25.944Z,96053.47
2022-07-29T07:25:52.401Z,96039.81
2022-07-29T07:28:19.339Z,96042.00
2022-07-29T07:30:51.824Z,96039.81
2022-07-29T07:33:18.276Z,96040.63
2022-07-29T07:35:45.521Z,96035.97
2022-07-29T07:38:12.120Z,96045.31
2022-07-29T07:40:39.002Z,96048.88
2022-07-29T07:43:06.069Z,96046.88
2022-07-29T07:45:33.810Z,96047.53
2022-07-29T07:48:00.411Z,96045.16
2022-07-29T07:50:27.327Z,96046.06
2022-07-29T07:52:58.408Z,96043.09
2022-07-29T07:55:25.137Z,96050.59
2022-07-29T07:57:52.129Z,96034.94
2022-07-29T08:00:18.628Z,96051.44
2022-07-29T08:02:46.071Z,96046.34
2022-07-29T08:05:18.120Z,96062.22
2022-07-29T08:07:47.918Z,96054.13
2022-07-29T08:10:15.515Z,96050.25
2022-07-29T08:12:42.786Z,96054.47
2022-07-29T08:15:09.709Z,96055.84
2022-07-29T08:17:36.116Z,96049.69
2022-07-29T08:20:03.128Z,96044.78
2022-07-29T08:22:29.627Z,96047.78
2022-07-29T08:24:57.016Z,96040.78
2022-07-29T08:27:42.838Z,96047.09
2022-07-29T08:30:11.023Z,96040.47
2022-07-29T08:32:53.317Z,96050.09
2022-07-29T08:35:21.816Z,96048.03
2022-07-29T08:37:49.124Z,96054.63
2022-07-29T08:40:15.810Z,96049.38
2022-07-29T08:42:42.799Z,96049.31
2022-07-29T08:45:10.310Z,96055.16
2022-07-29T08:47:43.177Z,96053.38
2022-07-29T08:50:11.105Z,96041.72
2022-07-29T08:52:39.904Z,96040.50
2022-07-29T08:55:08.376Z,96039.88
2022-07-29T08:57:37.258Z,96042.47
2022-07-29T09:00:11.344Z,96043.69
2022-07-29T09:02:46.734Z,96042.84
2022-07-29T09:05:14.272Z,96046.13
2022-07-29T09:07:43.995Z,96040.06
2022-07-29T09:10:11.506Z,96038.81
2022-07-29T09:12:38.366Z,96039.50
2022-07-29T09:15:05.411Z,96038.91
2022-07-29T09:17:47.162Z,96042.53
2022-07-29T09:20:19.238Z,96046.69
2022-07-29T09:22:50.333Z,96055.19
2022-07-29T09:25:41.448Z,96052.06
2022-07-29T09:28:12.954Z,96057.81
2022-07-29T09:30:58.027Z,96056.69
2022-07-29T09:33:40.092Z,96058.34
2022-07-29T09:36:09.071Z,96061.41
2022-07-29T09:38:37.518Z,96045.22
2022-07-29T09:41:06.948Z,96042.91
2022-07-29T09:43:35.179Z,96039.66
2022-07-29T09:46:14.729Z,96032.41
2022-07-29T09:48:42.296Z,96034.59
2022-07-29T09:51:28.307Z,96038.16
2022-07-29T09:54:27.797Z,96051.22
2022-07-29T09:56:55.547Z,96042.13
2022-07-29T09:59:25.206Z,96047.94
2022-07-29T10:01:51.629Z,96054.09
2022-07-29T10:04:18.879Z,96047.09
2022-07-29T10:07:05.479Z,96041.88
2022-07-29T10:09:33.319Z,96037.22
2022-07-29T10:12:07.480Z,96038.75
2022-07-29T10:14:36.710Z,96029.41
2022-07-29T10:17:04.836Z,96031.13
2022-07-29T10:19:32.899Z,96030.13
2022-07-29T10:22:00.959Z,96016.56
2022-07-29T10:24:29.123Z,96018.66
2022-07-29T10:26:58.164Z,96028.47
2022-07-29T10:29:26.036Z,96021.50
2022-07-29T10:32:11.149Z,96011.91
2022-07-29T10:34:55.671Z,96014.75
2022-07-29T10:38:04.841Z,96015.28
2022-07-29T10:41:20.273Z,96005.28
2022-07-29T10:43:51.260Z,95997.00
2022-07-29T10:46:19.378Z,95999.69
2022-07-29T10:49:11.587Z,95993.63
2022-07-29T10:52:03.627Z,95986.91
2022-07-29T10:54:48.976Z,95981.88
2022-07-29T10:57:15.932Z,95979.03
2022-07-29T10:59:44.267Z,95991.41
2022-07-29T11:02:41.780Z,95988.63
2022-07-29T11:05:20.266Z,95978.22
2022-07-29T11:08:19.994Z,95969.66
2022-07-29T11:11:12.532Z,95964.91
2022-07-29T11:13:48.931Z,95974.28
2022-07-29T11:16:16.419Z,95989.69
2022-07-29T11:19:11.454Z,95979.03
2022-07-29T11:21:54.007Z,95980.81
2022-07-29T11:24:30.095Z,95977.06
2022-07-29T11:27:21.324Z,95987.16
2022-07-29T11:30:02.085Z,95978.97
2022-07-29T11:32:39.376Z,96009.31
2022-07-29T11:35:18.834Z,96029.16
2022-07-29T11:37:52.566Z,96033.31
2022-07-29T11:40:34.311Z,96032.69
2022-07-29T11:43:00.689Z,96061.78
2022-07-29T11:45:45.565Z,96062.03
2022-07-29T11:48:28.887Z,96041.19
2022-07-29T11:51:12.102Z,96036.97
2022-07-29T11:53:40.450Z,96038.03
2022-07-29T11:56:09.634Z,96019.91
2022-07-29T11:58:38.572Z,96023.03
2022-07-29T12:01:06.104Z,96016.28
2022-07-29T12:03:35.896Z,96024.88
2022-07-29T12:06:13.788Z,96017.13
2022-07-29T12:08:44.510Z,96016.13
2022-07-29T12:11:20.418Z,96017.38
2022-07-29T12:13:49.210Z,96012.53
2022-07-29T12:16:15.857Z,95999.16
2022-07-29T12:18:42.335Z,96008.91
2022-07-29T12:21:09.693Z,96009.72
2022-07-29T12:23:39.019Z,96015.53
2022-07-29T12:26:10.707Z,96033.34
2022-07-29T12:28:48.684Z,96048.31
2022-07-29T12:31:43.922Z,96056.16
2022-07-29T12:34:03.017Z,96062.72
2022-07-29T12:36:29.465Z,96074.75
2022-07-29T12:38:55.948Z,96064.94
2022-07-29T12:41:23.196Z,96053.19
2022-07-29T12:43:56.414Z,96046.41
2022-07-29T12:46:23.738Z,96041.75
2022-07-29T12:48:58.758Z,96034.38
2022-07-29T12:51:36.171Z,96032.66
2022-07-29T12:54:05.507Z,96023.19
2022-07-29T12:56:47.316Z,96013.34
2022-07-29T12:59:22.928Z,96017.00
2022-07-29T13:01:52.332Z,96032.44
2022-07-29T13:04:30.275Z,96031.16
2022-07-29T13:07:04.590Z,96026.28
2022-07-29T13:09:43.066Z,96024.09
2022-07-29T13:12:11.376Z,96016.66
2022-07-29T13:14:48.660Z,96011.84
2022-07-29T13:17:28.228Z,95999.94
2022-07-29T13:20:13.817Z,96000.44
2022-07-29T13:22:42.019Z,96000.28
2022-07-29T13:25:11.183Z,96019.09
2022-07-29T13:27:39.295Z,96022.91
2022-07-29T13:30:08.391Z,96017.94
2022-07-29T13:32:35.835Z,96026.13
2022-07-29T13:35:05.485Z,96021.56
2022-07-29T13:37:34.935Z,96026.19
2022-07-29T13:40:04.514Z,96031.59
2022-07-29T13:42:32.919Z,96041.59
2022-07-29T13:45:00.451Z,96046.34
2022-07-29T13:47:32.426Z,96037.09
2022-07-29T13:49:59.338Z,96030.53
2022-07-29T13:52:26.063Z,96025.56
2022-07-29T13:54:52.418Z,96021.25
2022-07-29T13:57:20.076Z,96027.41
2022-07-29T13:59:53.900Z,96018.69
2022-07-29T14:02:21.457Z,96007.41
2022-07-29T14:04:52.487Z,96016.47
2022-07-29T14:07:19.088Z,96021.75
2022-07-29T14:09:45.603Z,96013.28
2022-07-29T14:12:12.773Z,96022.63
2022-07-29T14:14:39.603Z,96040.88
2022-07-29T14:17:07.287Z,96043.38
2022-07-29T14:19:36.532Z,96023.41
2022-07-29T14:22:04.979Z,96038.50
2022-07-29T14:24:32.094Z,96023.44
2022-07-29T14:26:58.932Z,96018.59
2022-07-29T14:29:37.083Z,96022.81
2022-07-29T14:32:11.310Z,96018.47
2022-07-29T14:34:39.278Z,96026.50
2022-07-29T14:37:07.046Z,96035.63
2022-07-29T14:39:39.335Z,96035.97
2022-07-29T14:42:09.364Z,96040.66
2022-07-29T14:44:38.103Z,96034.78
2022-07-29T14:47:07.537Z,96030.41
2022-07-29T14:49:34.926Z,96021.81
2022-07-29T14:52:01.528Z,96026.09
2022-07-29T14:54:28.069Z,96026.91
2022-07-29T14:56:58.600Z,96029.59
2022-07-29T14:59:25.883Z,96033.16
2022-07-29T15:01:52.473Z,96040.13
2022-07-29T15:04:19.087Z,96031.72
2022-07-29T15:06:45.743Z,96033.84
2022-07-29T15:09:12.731Z,96031.13
2022-07-29T15:11:39.349Z,96035.44
2022-07-29T15:14:06.972Z,96041.34
2022-07-29T15:16:36.181Z,96052.66
2022-07-29T15:19:02.755Z,96037.50
2022-07-29T15:21:29.139Z,96034.00
2022-07-29T15:23:55.509Z,96034.59
2022-07-29T15:26:22.273Z,96036.19
2022-07-29T15:28:48.929Z,96038.13
2022-07-29T15:31:15.583Z,96051.44
2022-07-29T15:33:42.394Z,96044.16
2022-07-29T15:36:09.143Z,96047.41
2022-07-29T15:38:35.522Z,96052.47
2022-07-29T15:41:08.488Z,96041.16
2022-07-29T15:43:36.077Z,96049.78
2022-07-29T15:46:21.920Z,96048.09
2022-07-29T15:48:48.454Z,96052.44
2022-07-29T15:51:15.160Z,96054.13
2022-07-29T15:53:41.981Z,96062.19
2022-07-29T15:56:08.397Z,96061.13
2022-07-29T15:58:35.155Z,96066.53
2022-07-29T16:01:02.128Z,96062.22
2022-07-29T16:03:28.803Z,96065.44
2022-07-29T16:05:55.555Z,96071.84
2022-07-29T16:08:21.915Z,96062.09
2022-07-29T16:10:48.468Z,96069.91
2022-07-29T16:13:17.795Z,96068.38
2022-07-29T16:15:45.742Z,96064.66
2022-07-29T16:18:30.339Z,96063.28
2022-07-29T16:20:57.164Z,96064.88
2022-07-29T16:23:24.582Z,96073.44
2022-07-29T16:25:59.696Z,96075.78
2022-07-29T16:28:27.595Z,96069.59
2022-07-29T16:30:54.592Z,96069.00
2022-07-29T16:33:20.966Z,96075.34
2022-07-29T16:35:47.355Z,96072.84
2022-07-29T16:38:14.036Z,96082.38
2022-07-29T16:40:40.790Z,96080.84
2022-07-29T16:43:07.380Z,96083.50
2022-07-29T16:45:45.264Z,96088.13
2022-07-29T16:48:13.797Z,96084.63
2022-07-29T16:50:41.309Z,96089.19
2022-07-29T16:53:10.204Z,96095.13
2022-07-29T16:55:37.063Z,96099.09
2022-07-29T16:58:03.522Z,96099.88
2022-07-29T17:00:30.023Z,96101.25
2022-07-29T17:02:56.457Z,96100.97
2022-07-29T17:05:22.844Z,96105.34
2022-07-29T17:07:50.247Z,96105.03
2022-07-29T17:10:17.175Z,96107.19
2022-07-29T17:12:43.716Z,96105.53
2022-07-29T17:15:12.139Z,96108.00
2022-07-29T17:17:55.063Z,96107.16
2022-07-29T17:20:23.703Z,96096.97
2022-07-29T17:22:50.123Z,96107.38
2022-07-29T17:25:20.815Z,96100.66
2022-07-29T17:27:49.968Z,96108.75
2022-07-29T17:30:16.833Z,96112.91
2022-07-29T17:32:43.235Z,96115.00
2022-07-29T17:35:36.540Z,96117.25
2022-07-29T17:38:02.919Z,96119.47
2022-07-29T17:40:29.331Z,96125.38
2022-07-29T17:42:56.084Z,96119.97
2022-07-29T17:45:22.427Z,96114.88
2022-07-29T17:47:48.779Z,96114.31
2022-07-29T17:50:15.526Z,96106.56
2022-07-29T17:52:41.984Z,96116.19
2022-07-29T17:55:10.200Z,96110.81
2022-07-29T17:57:37.129Z,96109.75
2022-07-29T18:00:05.375Z,96115.31
2022-07-29T18:02:37.935Z,96107.47
2022-07-29T18:05:04.977Z,96115.84
2022-07-29T18:07:31.509Z,96105.31
2022-07-29T18:10:00.613Z,96113.38
2022-07-29T18:12:27.340Z,96106.06
2022-07-29T18:14:53.708Z,96108.75
2022-07-29T18:17:20.381Z,96115.72
2022-07-29T18:19:48.087Z,96113.38
2022-07-29T18:22:15.074Z,96117.69
2022-07-29T18:24:42.719Z,96124.53
2022-07-29T18:27:09.142Z,96124.00
2022-07-29T18:29:35.611Z,96125.88
2022-07-29T18:32:02.191Z,96136.31
2022-07-29T18:34:29.349Z,96128.72
2022-07-29T18:36:56.364Z,96131.53
2022-07-29T18:39:23.068Z,96133.88
2022-07-29T18:41:51.630Z,96135.25
2022-07-29T18:44:21.721Z,96146.53
2022-07-29T18:46:49.416Z,96134.19
2022-07-29T18:49:16.287Z,96144.88
2022-07-29T18:51:42.995Z,96148.63
2022-07-29T18:54:10.416Z,96138.25
2022-07-29T18:56:37.672Z,96140.97
2022-07-29T18:59:04.609Z,96141.75
2022-07-29T19:01:31.872Z,96147.13
2022-07-29T19:03:58.957Z,96154.63
2022-07-29T19:06:26.017Z,96148.09
2022-07-29T19:08:53.257Z,96147.03
2022-07-29T19:11:19.674Z,96156.41
2022-07-29T19:13:46.080Z,96159.34
2022-07-29T19:16:14.464Z,96159.34
2022-07-29T19:18:43.007Z,96163.09
2022-07-29T19:21:09.804Z,96163.41
2022-07-29T19:24:01.490Z,96166.41
2022-07-29T19:26:23.389Z,96177.44
2022-07-29T19:28:53.338Z,96178.78
2022-07-29T19:31:19.772Z,96176.91
2022-07-29T19:33:46.606Z,96177.34
2022-07-29T19:36:12.963Z,96184.63
2022-07-29T19:38:39.484Z,96185.72
2022-07-29T19:41:06.573Z,96195.91
2022-07-29T19:43:51.297Z,96195.47
2022-07-29T19:46:20.152Z,96192.22
2022-07-29T19:48:46.596Z,96188.97
2022-07-29T19:51:13.435Z,96211.19
2022-07-29T19:53:39.853Z,96203.91
2022-07-29T19:56:08.761Z,96203.75
2022-07-29T19:58:36.088Z,96212.19
2022-07-29T20:01:03.067Z,96219.19
2022-07-29T20:03:39.537Z,96230.22
2022-07-29T20:06:06.164Z,96240.91
2022-07-29T20:08:33.096Z,96238.09
2022-07-29T20:10:59.456Z,96230.31
2022-07-29T20:13:26.179Z,96223.78
2022-07-29T20:15:52.607Z,96206.88
2022-07-29T20:18:19.007Z,96212.34
2022-07-29T20:20:45.937Z,96202.16
2022-07-29T20:23:12.301Z,96208.28
2022-07-29T20:25:39.202Z,96203.53
2022-07-29T20:28:05.999Z,96200.13
2022-07-29T20:30:32.447Z,96201.94
2022-07-29T20:32:59.379Z,96204.84
2022-07-29T20:35:28.111Z,96197.00
2022-07-29T20:37:56.613Z,96204.88
2022-07-29T20:40:27.067Z,96197.59
2022-07-29T20:42:55.093Z,96196.72
2022-07-29T20:45:23.369Z,96201.38
2022-07-29T20:47:51.576Z,96193.56
2022-07-29T20:50:19.416Z,96198.69
2022-07-29T20:52:45.956Z,96204.56
2022-07-29T20:55:12.535Z,96206.06
2022-07-29T20:57:40.070Z,96204.69
2022-07-29T21:00:08.400Z,96204.44
2022-07-29T21:02:34.857Z,96209.00
2022-07-29T21:05:01.815Z,96195.31
2022-07-29T21:07:28.533Z,96205.00
2022-07-29T21:09:54.900Z,96201.72
2022-07-29T21:12:21.286Z,96199.78
2022-07-29T21:14:48.393Z,96201.38
2022-07-29T21:17:16.210Z,96202.75
2022-07-29T21:19:43.055Z,96206.19
2022-07-29T21:22:10.139Z,96203.44
2022-07-29T21:24:36.683Z,96200.44
2022-07-29T21:27:22.542Z,96203.06
2022-07-29T21:29:49.758Z,96207.88
2022-07-29T21:32:28.439Z,96216.31
2022-07-29T21:34:57.553Z,96224.22
2022-07-29T21:37:24.052Z,96230.94
2022-07-29T21:39:50.499Z,96235.75
2022-07-29T21:42:17.271Z,96226.44
2022-07-29T21:44:43.764Z,96218.38
2022-07-29T21:47:11.555Z,96221.53
2022-07-29T21:49:38.512Z,96223.09
2022-07-29T21:52:05.709Z,96224.06
2022-07-29T21:54:34.548Z,96235.34
2022-07-29T21:57:01.433Z,96224.13
2022-07-29T21:59:27.879Z,96220.66
2022-07-29T22:01:54.703Z,96219.13
2022-07-29T22:04:22.107Z,96221.44
2022-07-29T22:06:48.576Z,96215.91
2022-07-29T22:09:15.516Z,96215.13
2022-07-29T22:11:42.380Z,96209.44
2022-07-29T22:14:09.311Z,96215.25
2022-07-29T22:16:35.821Z,96216.16
2022-07-29T22:19:03.704Z,96212.47
2022-07-29T22:21:31.147Z,96212.03
2022-07-29T22:23:58.086Z,96212.66
2022-07-29T22:26:24.488Z,96205.59
2022-07-29T22:28:51.299Z,96208.41
2022-07-29T22:31:18.459Z,96203.44
2022-07-29T22:33:44.908Z,96202.28
2022-07-29T22:36:11.487Z,96195.69
2022-07-29T22:38:38.059Z,96196.56
2022-07-29T22:41:04.461Z,96192.97
2022-07-29T22:43:30.821Z,96188.47
2022-07-29T22:45:57.220Z,96190.22
2022-07-29T22:48:23.630Z,96192.34
2022-07-29T22:50:49.966Z,96180.00
2022-07-29T22:53:16.898Z,96177.88
2022-07-29T22:55:45.043Z,96184.19
2022-07-29T22:58:11.445Z,96185.75
2022-07-29T23:00:38.291Z,96184.72
2022-07-29T23:03:04.636Z,96178.00
2022-07-29T23:05:31.130Z,96185.75
2022-07-29T23:07:57.979Z,96177.38
2022-07-29T23:10:24.511Z,96173.78
2022-07-29T23:12:50.864Z,96169.47
2022-07-29T23:15:18.184Z,96173.16
2022-07-29T23:17:44.656Z,96164.72
2022-07-29T23:20:11.264Z,96170.91
2022-07-29T23:22:41.410Z,96166.34
2022-07-29T23:25:08.203Z,96161.50
2022-07-29T23:27:34.567Z,96156.63
2022-07-29T23:30:01.403Z,96163.41
2022-07-29T23:32:27.922Z,96157.81
2022-07-29T23:34:54.304Z,96153.19
2022-07-29T23:37:20.996Z,96160.91
2022-07-29T23:39:48.051Z,96152.38
2022-07-29T23:42:14.466Z,96161.41
2022-07-29T23:44:40.823Z,96153.03
2022-07-29T23:47:07.577Z,96152.75
2022-07-29T23:49:34.495Z,96151.81
2022-07-29T23:52:00.852Z,96144.59
2022-07-29T23:54:27.642Z,96144.34
2022-07-29T23:56:54.010Z,96143.97
2022-07-29T23:59:20.448Z,96143.06
